Darling, MS (38623)

11:24 PM CDT en Octubre 19, 2014 (GMT -0500)
BHQ | Change Station
CLOSE
Current Station
Estación meteorológica personal
Location: Como, MS
Altura: 367 ft
Estaciones meteorológicas cercanas

Alt 367 ft 34.52 °N, 89.94 °W | Updated 8 minutes ago

Despejado
Despejado
48.4 ° F
Sensación térmica 48 ° F
N
0.0
Viento Variable Viento desde Oeste

Hoy
Alta -- | Baja -- ° F
--% Posibilidad de precipitaciones
Ayer
Alta -- | Baja -- ° F
Precip. -- pul
7:09 AM 6:21 PM
Creciente menguante, 13% visible
Presión 30.12 pul
Visibilidad 10.0 Millas
Nubes Despejado
Vientos helados 48 ° F
Punto de rocío 48 ° F
Humedad 97%
Precipitaciones 0.00 pul
Espesor de la nieve No disponible.
UV 0 de una escala de 12
Polen 1.80 de una escala de 12
Calidad del aire No disponible.
Flu Activity No Activity
METAR KUTA 200315Z AUTO 00000KT 10SM CLR 11/09 A3012 RMK AO2

More Conditions Fewer Conditions

Presión 30.12 pul
Visibilidad 10.0 Millas
Nubes Despejado
Vientos helados 48 ° F
Punto de rocío 48 ° F
Humedad 97%
Precipitaciones 0.00 pul
Espesor de la nieve No disponible.
UV 0 de una escala de 12
Polen 1.80 de una escala de 12
Calidad del aire No disponible.
Flu Activity No Activity
METAR KUTA 200315Z AUTO 00000KT 10SM CLR 11/09 A3012 RMK AO2

More Conditions Fewer Conditions

10-Day Weather Forecast

Almanac

Astronomía

Oct. 19, 2014 Salida Puesta
Hora real 7:09 AM CDT 6:21 PM CDT
Crepúsculo civil 6:44 AM CDT 6:46 PM CDT
Crepúsculo náutico 6:14 AM CDT 7:15 PM CDT
Crepúsculo astronómico 5:45 AM CDT 7:45 PM CDT
Luna 3:12 AM CDT (10/19) 4:04 PM CDT (10/19)
Horas de luz 12h 02m
Horas de luz
11h 11m
Creciente menguante, 13% of the Moon is Illuminated
Oct 20
Creciente menguante
Oct 23
Nueva
Oct 30
Cuarto creciente
Nov 6
Luna llena
Nov 14
Cuarto menguante

Extremos de ayer

Máximos del estado Bajos del estado

Community

WunderPhotos

Upload Photos

1,763,294 ¡fotos cargadas!

Nearby

Grosos de nieve

Estación Profundido Altura
No tenemos constancia de nieve nueva.

Actividad de terremotos

Ciudad Distance Mag. Tiempo y dato
No hay informes recientes de la actividad sísmica.
Magnitud mínima muestra es 2,5.

Temperaturas de aguas costeras

Lugar Temperatura
Sin partes meteorológicos de las estaciones

Estaciones meteorológicas cercanas